Time;durP1;ratioP1;P1;durP2;ratioP2;P2;SDS_P1;SDS_P2;PMS_P1;PMS_P2;Temp;Humidity;BMP_temperature;BMP_pressure;BME280_temperature;BME280_humidity;BME280_pressure;Samples;Min_cycle;Max_cycle;Signal;HPM_P1;HPM_P2
2021/07/16 00:01:26;;;;;;;9.50;5.83;;;25.00;99.90;;;;;;5118183;27;20634;-61
2021/07/16 00:03:52;;;;;;;8.33;5.07;;;25.00;99.90;;;;;;5136470;27;20639;-62
2021/07/16 00:06:18;;;;;;;6.07;5.20;;;25.00;99.90;;;;;;5137221;27;20512;-65
2021/07/16 00:08:44;;;;;;;8.10;5.40;;;24.90;99.90;;;;;;5136712;27;20197;-65
2021/07/16 00:11:10;;;;;;;7.77;5.83;;;24.90;99.90;;;;;;5137111;27;20434;-62
2021/07/16 00:13:36;;;;;;;6.23;5.13;;;24.80;99.90;;;;;;5118009;27;20182;-62
2021/07/16 00:16:01;;;;;;;6.87;5.30;;;24.80;99.90;;;;;;5136590;27;20194;-61
2021/07/16 00:18:27;;;;;;;10.17;6.50;;;24.80;99.90;;;;;;5136530;27;20432;-65
2021/07/16 00:20:53;;;;;;;7.13;5.77;;;24.80;99.90;;;;;;5136791;27;20266;-65
2021/07/16 00:23:18;;;;;;;9.30;5.80;;;24.80;99.90;;;;;;5135966;27;20189;-61
2021/07/16 00:25:44;;;;;;;13.87;5.90;;;24.70;99.90;;;;;;5136490;27;20204;-61
2021/07/16 00:28:09;;;;;;;8.20;5.47;;;24.70;99.90;;;;;;5136306;27;20548;-65
2021/07/16 00:30:36;;;;;;;8.47;6.67;;;24.60;99.90;;;;;;5135967;27;20201;-65
2021/07/16 00:33:02;;;;;;;10.17;6.30;;;24.60;99.90;;;;;;5117582;27;20190;-61
2021/07/16 00:35:29;;;;;;;7.03;6.07;;;24.60;99.90;;;;;;5136081;27;20528;-62
2021/07/16 00:37:55;;;;;;;7.77;5.77;;;24.60;99.90;;;;;;5136158;27;20409;-65
2021/07/16 00:40:21;;;;;;;7.57;6.07;;;24.50;99.90;;;;;;5136125;27;20425;-65
2021/07/16 00:42:47;;;;;;;11.53;6.60;;;24.50;99.90;;;;;;5117639;27;20469;-61
2021/07/16 00:45:14;;;;;;;7.00;5.50;;;24.40;99.90;;;;;;5135943;27;20909;-65
2021/07/16 00:47:41;;;;;;;10.80;6.10;;;24.40;99.90;;;;;;5117555;27;20539;-62
2021/07/16 00:50:10;;;;;;;13.63;7.80;;;24.40;99.90;;;;;;5135841;27;20441;-65
2021/07/16 00:52:37;;;;;;;6.90;6.20;;;24.40;99.90;;;;;;5117554;27;20917;-61
2021/07/16 00:55:04;;;;;;;9.07;5.53;;;24.30;99.90;;;;;;5116255;27;20437;-61
2021/07/16 00:57:30;;;;;;;8.87;6.97;;;24.40;99.90;;;;;;5135760;27;20445;-62
2021/07/16 00:59:56;;;;;;;8.73;7.20;;;24.30;99.90;;;;;;5135308;27;20469;-62
2021/07/16 01:02:22;;;;;;;8.47;6.80;;;24.30;99.90;;;;;;5117197;27;20803;-65
2021/07/16 01:04:48;;;;;;;7.00;6.30;;;24.30;99.90;;;;;;5135360;27;20192;-61
2021/07/16 01:07:13;;;;;;;6.80;6.10;;;24.20;99.90;;;;;;5135562;27;20435;-62
2021/07/16 01:09:39;;;;;;;8.67;6.83;;;24.20;99.90;;;;;;5135736;27;20177;-61
2021/07/16 01:12:06;;;;;;;8.90;6.13;;;24.20;99.90;;;;;;5135458;27;20186;-65
2021/07/16 01:14:32;;;;;;;11.00;6.37;;;24.20;99.90;;;;;;5135543;27;20572;-65
2021/07/16 01:16:59;;;;;;;6.33;5.70;;;24.20;99.90;;;;;;5135596;27;20517;-61
2021/07/16 01:19:48;;;;;;;8.63;6.40;;;24.10;99.90;;;;;;5116900;27;20678;-65
2021/07/16 01:22:16;;;;;;;10.47;7.30;;;24.10;99.90;;;;;;5135174;27;20475;-65
2021/07/16 01:24:42;;;;;;;7.57;6.00;;;24.10;99.90;;;;;;5116634;27;20437;-61
2021/07/16 01:27:08;;;;;;;14.97;7.57;;;24.00;99.90;;;;;;5134567;27;20467;-66
2021/07/16 01:29:35;;;;;;;7.60;6.30;;;24.00;99.90;;;;;;5135337;27;20411;-65
2021/07/16 01:32:01;;;;;;;9.17;6.13;;;23.90;99.90;;;;;;5135022;27;20422;-65
2021/07/16 01:34:27;;;;;;;9.37;7.00;;;23.90;99.90;;;;;;5135072;27;20410;-65
2021/07/16 01:36:53;;;;;;;11.07;5.93;;;23.90;99.90;;;;;;5116536;27;20458;-61
2021/07/16 01:39:18;;;;;;;12.57;6.00;;;23.80;99.90;;;;;;5135045;27;20179;-65
2021/07/16 01:41:44;;;;;;;8.60;6.13;;;23.80;99.90;;;;;;5116302;27;20262;-65
2021/07/16 01:44:10;;;;;;;10.30;7.13;;;23.80;99.90;;;;;;5134743;27;20255;-61
2021/07/16 01:46:36;;;;;;;6.10;5.53;;;23.80;99.90;;;;;;5134891;27;20427;-62
2021/07/16 01:49:01;;;;;;;12.63;6.83;;;23.80;99.90;;;;;;5135127;27;20171;-65
2021/07/16 01:51:28;;;;;;;12.03;6.20;;;23.80;99.90;;;;;;5135319;27;20195;-62
2021/07/16 01:53:55;;;;;;;8.97;6.07;;;23.80;99.90;;;;;;5134854;27;20542;-61
2021/07/16 01:56:22;;;;;;;10.30;5.50;;;23.80;99.90;;;;;;5116797;27;20839;-61
2021/07/16 01:58:48;;;;;;;12.30;7.27;;;23.80;99.90;;;;;;5134764;27;20401;-61
2021/07/16 02:01:14;;;;;;;7.90;6.07;;;23.70;99.90;;;;;;5134148;27;20476;-61
2021/07/16 02:03:44;;;;;;;8.73;5.50;;;23.70;99.90;;;;;;5134489;27;20174;-61
2021/07/16 02:06:10;;;;;;;7.73;6.27;;;23.70;99.90;;;;;;5135050;27;20453;-66
2021/07/16 02:08:36;;;;;;;7.97;5.70;;;23.60;99.90;;;;;;5116092;28;20407;-61
2021/07/16 02:11:02;;;;;;;7.90;6.33;;;23.60;99.90;;;;;;5134832;28;20965;-61
2021/07/16 02:13:27;;;;;;;8.97;6.37;;;23.60;99.90;;;;;;5116054;28;20219;-65
2021/07/16 02:15:54;;;;;;;10.57;6.80;;;23.60;99.90;;;;;;5134904;28;20430;-65
2021/07/16 02:18:21;;;;;;;15.20;6.10;;;23.60;99.90;;;;;;5134681;28;20176;-61
2021/07/16 02:20:48;;;;;;;9.73;6.07;;;23.60;99.90;;;;;;5134666;28;20856;-65
2021/07/16 02:23:20;;;;;;;6.80;6.13;;;23.50;99.90;;;;;;5134471;28;20816;-66
2021/07/16 02:25:46;;;;;;;9.93;6.33;;;23.50;99.90;;;;;;5134646;28;20458;-65
2021/07/16 02:28:31;;;;;;;15.47;6.87;;;23.60;99.90;;;;;;5134520;28;20762;-61
2021/07/16 02:31:02;;;;;;;10.80;6.67;;;23.60;99.90;;;;;;5116174;28;20442;-62
2021/07/16 02:33:28;;;;;;;7.37;6.10;;;23.50;99.90;;;;;;5134352;28;20411;-61
2021/07/16 02:35:54;;;;;;;9.07;5.97;;;23.50;99.90;;;;;;5134754;28;20427;-65
2021/07/16 02:38:22;;;;;;;8.80;6.17;;;23.50;99.90;;;;;;5136480;27;20399;-65
2021/07/16 02:40:48;;;;;;;9.73;6.40;;;23.50;99.90;;;;;;5119929;27;20474;-65
2021/07/16 02:43:15;;;;;;;9.60;6.70;;;23.40;99.90;;;;;;5138398;27;20814;-65
2021/07/16 02:45:42;;;;;;;9.63;6.90;;;23.40;99.90;;;;;;5119849;27;20542;-65
2021/07/16 02:48:07;;;;;;;8.77;5.97;;;23.40;99.90;;;;;;5138228;27;20411;-65
2021/07/16 02:50:39;;;;;;;7.53;6.60;;;23.40;99.90;;;;;;5138651;27;20431;-66
2021/07/16 02:53:06;;;;;;;8.60;6.90;;;23.40;99.90;;;;;;5138171;27;20179;-65
2021/07/16 02:55:32;;;;;;;8.53;6.83;;;23.50;99.90;;;;;;5137223;27;20516;-65
2021/07/16 02:57:58;;;;;;;9.00;7.10;;;23.50;99.90;;;;;;5138111;27;20446;-65
2021/07/16 03:00:27;;;;;;;8.07;6.67;;;23.50;99.90;;;;;;5137402;27;20499;-61
2021/07/16 03:02:53;;;;;;;13.83;6.97;;;23.50;99.90;;;;;;5137898;27;20175;-65
2021/07/16 03:05:29;;;;;;;8.87;6.77;;;23.40;99.90;;;;;;5137906;27;20790;-62
2021/07/16 03:07:57;;;;;;;10.23;5.77;;;23.40;99.90;;;;;;5119543;27;20415;-67
2021/07/16 03:10:31;;;;;;;9.63;6.80;;;23.40;99.90;;;;;;5137857;27;20489;-65
2021/07/16 03:12:58;;;;;;;12.50;7.60;;;23.30;99.90;;;;;;5137848;27;20403;-66
2021/07/16 03:15:26;;;;;;;11.87;7.33;;;23.30;99.90;;;;;;5137784;27;21005;-61
2021/07/16 03:17:52;;;;;;;11.67;7.17;;;23.30;99.90;;;;;;5137768;27;20411;-65
2021/07/16 03:20:18;;;;;;;10.47;7.10;;;23.30;99.90;;;;;;5137625;27;20937;-65
2021/07/16 03:22:44;;;;;;;10.40;6.67;;;23.30;99.90;;;;;;5137498;27;20418;-61
2021/07/16 03:25:15;;;;;;;14.67;8.30;;;23.30;99.90;;;;;;5118867;27;20967;-61
2021/07/16 03:27:40;;;;;;;8.13;7.23;;;23.30;99.90;;;;;;5119093;27;20404;-66
2021/07/16 03:30:08;;;;;;;11.40;7.67;;;23.40;99.90;;;;;;5119022;27;20804;-61
2021/07/16 03:32:35;;;;;;;9.60;7.90;;;23.40;99.90;;;;;;5118734;27;20179;-62
2021/07/16 03:35:01;;;;;;;11.57;8.10;;;23.40;99.90;;;;;;5137270;27;20435;-61
2021/07/16 03:37:27;;;;;;;10.10;7.10;;;23.40;99.90;;;;;;5136668;27;20423;-62
2021/07/16 03:39:52;;;;;;;12.40;7.30;;;23.40;99.90;;;;;;5118804;27;20506;-66
2021/07/16 03:42:18;;;;;;;12.83;7.10;;;23.40;99.90;;;;;;5136975;27;20207;-62
2021/07/16 03:44:45;;;;;;;9.13;8.20;;;23.40;99.90;;;;;;5137355;27;20786;-65
2021/07/16 03:47:12;;;;;;;10.20;8.03;;;23.40;99.90;;;;;;5137157;27;20411;-61
2021/07/16 03:49:43;;;;;;;8.73;7.83;;;23.40;99.90;;;;;;5136639;27;20486;-65
2021/07/16 03:52:09;;;;;;;13.20;7.90;;;23.40;99.90;;;;;;5136913;27;20412;-61
2021/07/16 03:54:36;;;;;;;10.60;7.80;;;23.40;99.90;;;;;;5137060;27;20422;-61
2021/07/16 03:57:03;;;;;;;10.20;8.20;;;23.50;99.90;;;;;;5136894;27;20431;-61
2021/07/16 03:59:28;;;;;;;10.10;8.27;;;23.40;99.90;;;;;;5136683;27;20442;-65
2021/07/16 04:01:54;;;;;;;10.33;9.30;;;23.50;99.90;;;;;;5118085;27;20476;-61
2021/07/16 04:04:19;;;;;;;10.20;9.03;;;23.50;99.90;;;;;;5136637;27;20536;-61
2021/07/16 04:06:54;;;;;;;12.53;8.43;;;23.50;99.90;;;;;;5118357;27;20228;-61
2021/07/16 04:09:26;;;;;;;12.77;8.70;;;23.50;99.90;;;;;;5136929;27;20246;-65
2021/07/16 04:12:13;;;;;;;9.90;8.87;;;23.50;99.90;;;;;;5118113;27;20460;-61
2021/07/16 04:14:41;;;;;;;9.90;8.70;;;23.50;99.90;;;;;;5136744;27;20857;-61
2021/07/16 04:17:16;;;;;;;9.37;8.47;;;23.40;99.90;;;;;;5136546;27;20416;-65
2021/07/16 04:19:43;;;;;;;9.00;8.10;;;23.40;99.90;;;;;;5136575;27;20891;-62
2021/07/16 04:22:09;;;;;;;12.80;10.07;;;23.40;99.90;;;;;;5136137;27;20512;-61
2021/07/16 04:24:36;;;;;;;15.47;10.70;;;23.50;99.90;;;;;;5118101;27;20407;-61
2021/07/16 04:27:03;;;;;;;11.20;8.70;;;23.50;99.90;;;;;;5136296;27;20239;-65
2021/07/16 04:29:28;;;;;;;14.80;9.73;;;23.50;99.90;;;;;;5117948;27;20412;-61
2021/07/16 04:31:54;;;;;;;11.83;10.57;;;23.50;99.90;;;;;;5136160;27;20460;-61
2021/07/16 04:34:20;;;;;;;11.97;10.00;;;23.40;99.90;;;;;;5136383;27;20306;-61
2021/07/16 04:36:46;;;;;;;14.50;10.30;;;23.40;99.90;;;;;;5136195;27;20515;-66
2021/07/16 04:39:12;;;;;;;15.87;9.10;;;23.40;99.90;;;;;;5136049;27;20173;-61
2021/07/16 04:41:38;;;;;;;17.07;9.90;;;23.50;99.90;;;;;;5135646;27;20290;-62
2021/07/16 04:44:04;;;;;;;10.70;9.60;;;23.50;99.90;;;;;;5117292;27;20542;-62
2021/07/16 04:46:30;;;;;;;13.17;10.80;;;23.50;99.90;;;;;;5110149;28;20197;-62
2021/07/16 04:48:55;;;;;;;13.50;10.47;;;23.50;99.90;;;;;;5112112;28;20417;-66
2021/07/16 04:51:33;;;;;;;14.50;10.60;;;23.50;99.90;;;;;;5112893;28;20190;-62
2021/07/16 04:54:00;;;;;;;11.90;10.13;;;23.50;99.90;;;;;;5113190;28;20161;-61
2021/07/16 04:56:26;;;;;;;16.20;10.83;;;23.50;99.90;;;;;;5113471;28;20529;-62
2021/07/16 04:58:52;;;;;;;11.83;9.97;;;23.50;99.90;;;;;;5113129;28;20406;-66
2021/07/16 05:01:21;;;;;;;15.10;10.87;;;23.50;99.90;;;;;;5111849;28;20511;-62
2021/07/16 05:03:47;;;;;;;13.83;10.80;;;23.50;99.90;;;;;;5114780;28;20182;-62
2021/07/16 05:06:13;;;;;;;17.27;11.67;;;23.50;99.90;;;;;;5114120;28;20448;-66
2021/07/16 05:08:39;;;;;;;17.80;10.87;;;23.50;99.90;;;;;;5112969;28;20397;-67
2021/07/16 05:11:06;;;;;;;13.00;10.07;;;23.50;99.90;;;;;;5115120;28;20224;-66
2021/07/16 05:13:32;;;;;;;13.60;11.70;;;23.50;99.90;;;;;;5114905;28;20496;-66
2021/07/16 05:15:59;;;;;;;20.13;12.00;;;23.60;99.90;;;;;;5115073;28;20921;-62
2021/07/16 05:18:25;;;;;;;13.67;12.00;;;23.60;99.90;;;;;;5114809;28;20928;-62
2021/07/16 05:20:51;;;;;;;15.33;11.27;;;23.60;99.90;;;;;;5114587;28;20556;-66
2021/07/16 05:23:16;;;;;;;13.77;11.37;;;23.60;99.90;;;;;;5114870;28;20488;-66
2021/07/16 05:25:42;;;;;;;12.13;10.77;;;23.60;99.90;;;;;;5113526;28;20245;-67
2021/07/16 05:28:07;;;;;;;13.40;9.90;;;23.70;99.90;;;;;;5114631;28;20180;-62
2021/07/16 05:30:33;;;;;;;12.60;10.13;;;23.70;99.90;;;;;;5114885;28;20274;-66
2021/07/16 05:32:58;;;;;;;13.20;11.03;;;23.80;99.90;;;;;;5114210;28;20201;-66
2021/07/16 05:35:24;;;;;;;16.50;12.17;;;23.80;99.90;;;;;;5120261;27;20209;-62
2021/07/16 05:37:50;;;;;;;14.50;12.33;;;23.90;99.90;;;;;;5131193;27;20680;-66
2021/07/16 05:40:15;;;;;;;15.07;13.43;;;23.90;99.90;;;;;;5110415;27;20532;-62
2021/07/16 05:42:41;;;;;;;14.50;12.70;;;23.90;99.90;;;;;;5119537;27;20247;-62
2021/07/16 05:45:08;;;;;;;16.27;12.60;;;23.90;99.90;;;;;;5118141;27;20201;-64
2021/07/16 05:47:33;;;;;;;13.83;12.17;;;24.00;99.90;;;;;;5099928;27;20270;-66
2021/07/16 05:49:59;;;;;;;13.70;12.17;;;23.90;99.90;;;;;;5107317;27;20525;-62
2021/07/16 05:52:26;;;;;;;17.13;14.07;;;24.00;99.90;;;;;;5123989;27;20436;-63
2021/07/16 05:54:55;;;;;;;14.93;12.10;;;24.00;99.90;;;;;;5127921;27;20443;-62
2021/07/16 05:57:20;;;;;;;20.27;13.10;;;24.00;99.90;;;;;;5128738;27;20803;-67
2021/07/16 05:59:46;;;;;;;23.97;12.87;;;24.00;99.90;;;;;;5128679;27;20483;-66
2021/07/16 06:02:12;;;;;;;14.47;12.60;;;24.10;99.90;;;;;;5127279;27;20212;-63
2021/07/16 06:04:37;;;;;;;16.10;14.40;;;24.10;99.90;;;;;;5127861;27;20183;-66
2021/07/16 06:07:04;;;;;;;17.93;12.93;;;24.10;99.90;;;;;;5108327;28;20581;-66
2021/07/16 06:09:31;;;;;;;17.60;13.10;;;24.20;99.90;;;;;;5108687;28;20188;-62
2021/07/16 06:11:57;;;;;;;17.57;13.33;;;24.20;99.90;;;;;;5121578;27;20897;-62
2021/07/16 06:14:23;;;;;;;19.37;12.43;;;24.30;99.90;;;;;;5125867;28;20430;-66
2021/07/16 06:16:51;;;;;;;20.00;14.30;;;24.30;99.90;;;;;;5122157;28;20537;-66
2021/07/16 06:19:18;;;;;;;15.83;13.43;;;24.40;99.90;;;;;;5126407;28;20180;-62
2021/07/16 06:21:44;;;;;;;17.47;13.97;;;24.40;99.90;;;;;;5128917;27;20829;-62
2021/07/16 06:24:11;;;;;;;16.33;13.23;;;24.40;99.90;;;;;;5128678;28;20417;-62
2021/07/16 06:26:36;;;;;;;20.27;15.13;;;24.50;99.90;;;;;;5127181;27;20200;-62
2021/07/16 06:29:03;;;;;;;16.30;14.43;;;24.60;99.90;;;;;;5110876;28;20946;-67
2021/07/16 06:31:29;;;;;;;16.60;14.90;;;24.70;99.90;;;;;;5108281;28;20286;-66
2021/07/16 06:33:55;;;;;;;17.20;15.40;;;24.70;99.90;;;;;;5103095;28;20474;-67
2021/07/16 06:36:21;;;;;;;21.60;14.80;;;24.80;99.90;;;;;;5108930;28;20608;-67
2021/07/16 06:38:47;;;;;;;18.10;14.63;;;24.90;99.90;;;;;;5128500;28;20193;-67
2021/07/16 06:41:13;;;;;;;16.27;14.57;;;25.00;99.90;;;;;;5109513;28;20466;-66
2021/07/16 06:43:39;;;;;;;22.10;14.43;;;25.00;99.90;;;;;;5127703;28;20954;-67
2021/07/16 06:46:06;;;;;;;15.30;13.60;;;25.10;99.90;;;;;;5107992;28;20195;-68
2021/07/16 06:48:32;;;;;;;19.87;14.70;;;25.10;99.90;;;;;;5106076;28;20441;-63
2021/07/16 06:50:58;;;;;;;16.27;14.63;;;25.20;99.90;;;;;;5123779;27;21042;-67
2021/07/16 06:53:23;;;;;;;18.27;15.50;;;25.20;99.90;;;;;;5104264;28;20198;-63
2021/07/16 06:55:49;;;;;;;23.23;15.70;;;25.30;99.90;;;;;;5121859;28;20668;-67
2021/07/16 06:58:15;;;;;;;22.20;15.63;;;25.40;99.90;;;;;;5122890;28;20690;-63
2021/07/16 07:00:41;;;;;;;18.10;14.13;;;25.40;99.90;;;;;;5124063;28;20234;-63
2021/07/16 07:03:07;;;;;;;19.90;15.67;;;25.50;99.90;;;;;;5104942;28;20191;-67
2021/07/16 07:05:33;;;;;;;20.37;16.03;;;25.50;99.90;;;;;;5108092;28;20438;-63
2021/07/16 07:07:59;;;;;;;31.13;24.90;;;25.60;99.90;;;;;;5124477;28;20191;-69
2021/07/16 07:10:24;;;;;;;21.73;17.70;;;25.60;99.90;;;;;;5127735;27;20470;-69
2021/07/16 07:12:50;;;;;;;18.50;15.80;;;25.60;99.90;;;;;;5126679;28;20280;-67
2021/07/16 07:15:16;;;;;;;20.77;15.90;;;25.60;99.90;;;;;;5127245;27;20244;-63
2021/07/16 07:17:42;;;;;;;17.53;14.60;;;25.70;99.90;;;;;;5126062;28;20285;-64
2021/07/16 07:20:09;;;;;;;24.60;14.60;;;25.70;99.90;;;;;;5109747;28;20731;-67
2021/07/16 07:22:35;;;;;;;21.47;14.90;;;25.80;99.90;;;;;;5126435;28;20466;-69
2021/07/16 07:25:00;;;;;;;18.73;16.10;;;25.80;99.90;;;;;;5131244;27;20446;-69
2021/07/16 07:27:26;;;;;;;32.90;16.53;;;25.80;99.90;;;;;;5133469;27;20704;-63
2021/07/16 07:29:52;;;;;;;48.47;18.20;;;25.90;99.90;;;;;;5116310;27;20463;-67
2021/07/16 07:32:19;;;;;;;40.83;17.07;;;25.90;99.90;;;;;;5129493;27;20195;-67
2021/07/16 07:34:45;;;;;;;39.67;18.93;;;26.00;99.90;;;;;;5128369;27;20175;-63
2021/07/16 07:37:15;;;;;;;32.53;16.80;;;26.10;99.90;;;;;;5102922;27;20419;-67
2021/07/16 07:39:40;;;;;;;33.70;16.00;;;26.10;99.90;;;;;;5128681;27;20175;-63
2021/07/16 07:42:06;;;;;;;19.97;13.93;;;26.10;99.90;;;;;;5128518;27;20990;-66
2021/07/16 07:44:32;;;;;;;25.00;14.57;;;26.10;99.90;;;;;;5123256;27;20189;-68
2021/07/16 07:46:57;;;;;;;21.47;15.30;;;26.20;99.90;;;;;;5128157;27;20203;-62
2021/07/16 07:49:24;;;;;;;29.03;16.10;;;26.20;99.90;;;;;;5106085;27;20183;-63
2021/07/16 07:51:49;;;;;;;18.97;14.20;;;26.30;99.90;;;;;;5108632;27;20207;-70
2021/07/16 07:54:15;;;;;;;16.03;13.40;;;26.40;99.90;;;;;;5130989;27;20407;-63
2021/07/16 07:56:41;;;;;;;20.03;13.00;;;26.50;99.90;;;;;;5133462;27;20298;-63
2021/07/16 07:59:07;;;;;;;16.27;13.93;;;26.60;99.90;;;;;;5132214;27;20515;-63
2021/07/16 08:01:34;;;;;;;18.43;13.07;;;26.70;99.90;;;;;;5133293;27;20259;-64
2021/07/16 08:04:00;;;;;;;14.30;12.20;;;26.80;99.90;;;;;;5133534;27;20669;-66
2021/07/16 08:06:26;;;;;;;15.10;11.60;;;26.80;99.90;;;;;;5131647;27;20459;-62
2021/07/16 08:08:55;;;;;;;13.43;11.80;;;26.90;99.90;;;;;;5109744;27;20501;-63
2021/07/16 08:11:21;;;;;;;15.50;11.90;;;27.00;99.90;;;;;;5121643;27;20447;-63
2021/07/16 08:13:46;;;;;;;14.93;11.30;;;27.10;99.90;;;;;;5124536;27;21020;-63
2021/07/16 08:16:12;;;;;;;16.53;12.27;;;27.10;99.90;;;;;;5124468;27;20206;-62
2021/07/16 08:18:38;;;;;;;12.70;11.40;;;27.20;99.90;;;;;;5123258;27;20187;-68
2021/07/16 08:21:03;;;;;;;13.47;12.03;;;27.30;99.90;;;;;;5121208;27;20211;-63
2021/07/16 08:23:29;;;;;;;14.83;13.37;;;27.30;99.90;;;;;;5119881;27;20207;-65
2021/07/16 08:25:54;;;;;;;12.77;11.47;;;27.30;99.90;;;;;;5123737;27;20205;-61
2021/07/16 08:28:20;;;;;;;13.10;11.70;;;27.40;99.90;;;;;;5115724;27;20629;-65
2021/07/16 08:30:46;;;;;;;15.47;11.60;;;27.40;99.90;;;;;;5100644;27;20195;-66
2021/07/16 08:33:11;;;;;;;18.83;12.27;;;27.50;99.90;;;;;;5100235;27;20282;-65
2021/07/16 08:35:37;;;;;;;13.63;12.23;;;27.60;99.90;;;;;;5124056;27;20229;-65
2021/07/16 08:38:05;;;;;;;14.73;12.57;;;27.60;99.90;;;;;;5122920;27;20232;-61
2021/07/16 08:40:32;;;;;;;15.07;11.47;;;27.70;99.90;;;;;;5125948;27;20230;-62
2021/07/16 08:42:57;;;;;;;17.50;12.33;;;27.80;99.90;;;;;;5125388;27;20419;-66
2021/07/16 08:45:24;;;;;;;14.27;12.77;;;27.80;99.90;;;;;;5107476;27;21048;-62
2021/07/16 08:47:51;;;;;;;17.00;13.40;;;27.90;99.90;;;;;;5123391;27;20268;-62
2021/07/16 08:50:17;;;;;;;15.90;13.63;;;28.00;99.90;;;;;;5125657;27;20461;-66
2021/07/16 08:52:47;;;;;;;14.53;11.83;;;28.00;99.90;;;;;;5126088;27;20452;-67
2021/07/16 08:55:14;;;;;;;14.23;12.53;;;28.10;99.90;;;;;;5127146;27;20488;-63
2021/07/16 08:57:41;;;;;;;15.47;11.47;;;28.10;99.90;;;;;;5125838;27;20995;-67
2021/07/16 09:00:12;;;;;;;17.10;13.60;;;28.10;99.90;;;;;;5125027;27;20466;-66
2021/07/16 09:02:56;;;;;;;16.77;13.57;;;28.10;99.90;;;;;;5126765;27;20494;-63
2021/07/16 09:05:38;;;;;;;14.73;12.23;;;28.10;99.90;;;;;;5110075;27;20443;-63
2021/07/16 09:08:11;;;;;;;17.47;11.53;;;28.20;99.90;;;;;;5124082;27;20522;-67
2021/07/16 09:10:38;;;;;;;15.10;12.27;;;28.30;99.90;;;;;;5124358;27;20446;-62
2021/07/16 09:13:08;;;;;;;15.20;13.70;;;28.30;99.90;;;;;;5124660;27;20449;-67
2021/07/16 09:15:33;;;;;;;18.13;12.63;;;28.50;99.90;;;;;;5123552;27;20476;-64
2021/07/16 09:18:23;;;;;;;14.43;12.87;;;28.70;99.90;;;;;;5125740;27;20895;-67
2021/07/16 09:21:10;;;;;;;16.87;13.03;;;28.80;99.90;;;;;;5128797;27;20826;-63
2021/07/16 09:23:43;;;;;;;19.10;14.33;;;28.90;99.90;;;;;;5105522;27;20440;-67
2021/07/16 09:26:13;;;;;;;16.43;13.40;;;29.10;99.90;;;;;;5128675;27;20495;-67
2021/07/16 09:28:47;;;;;;;17.27;13.83;;;29.10;99.90;;;;;;5121318;27;20425;-68
2021/07/16 09:31:24;;;;;;;15.87;12.83;;;29.10;99.90;;;;;;5124528;27;21082;-68
2021/07/16 09:33:56;;;;;;;18.60;13.73;;;29.00;99.90;;;;;;5106739;27;20433;-62
2021/07/16 09:36:33;;;;;;;15.07;13.57;;;28.90;99.90;;;;;;5108607;27;20471;-67
2021/07/16 09:39:09;;;;;;;17.90;13.60;;;28.90;99.90;;;;;;5128521;27;20862;-62
2021/07/16 09:41:55;;;;;;;15.90;13.57;;;29.00;99.90;;;;;;5127906;27;21035;-66
2021/07/16 09:44:35;;;;;;;17.40;13.83;;;29.10;99.90;;;;;;5123983;27;20778;-63
2021/07/16 09:47:19;;;;;;;15.53;13.30;;;29.20;99.90;;;;;;5101883;28;21060;-63
2021/07/16 09:50:05;;;;;;;14.87;13.33;;;29.20;99.90;;;;;;5122707;27;20464;-67
2021/07/16 09:52:30;;;;;;;14.40;12.97;;;29.10;99.90;;;;;;5119771;27;20916;-63
2021/07/16 09:55:29;;;;;;;15.80;14.03;;;29.10;99.90;;;;;;5124363;27;20527;-69
2021/07/16 09:57:57;;;;;;;18.60;11.70;;;29.30;99.90;;;;;;5086991;27;20621;-68
2021/07/16 10:00:26;;;;;;;19.80;13.70;;;29.40;99.90;;;;;;5121536;27;20496;-63
2021/07/16 10:02:57;;;;;;;13.63;12.27;;;29.40;99.90;;;;;;5123355;27;20687;-63
2021/07/16 10:05:23;;;;;;;14.40;12.90;;;29.50;99.90;;;;;;5124511;27;20449;-68
2021/07/16 10:07:50;;;;;;;14.63;12.87;;;29.60;99.90;;;;;;5118508;27;20436;-63
2021/07/16 10:10:22;;;;;;;13.37;11.93;;;29.60;99.90;;;;;;5123829;27;20445;-68
2021/07/16 10:12:50;;;;;;;13.80;12.47;;;29.60;99.90;;;;;;5106456;28;20434;-63
2021/07/16 10:15:18;;;;;;;15.80;12.20;;;29.60;99.90;;;;;;5106894;28;20446;-67
2021/07/16 10:17:44;;;;;;;13.50;12.00;;;29.70;99.90;;;;;;5123991;28;20499;-67
2021/07/16 10:20:11;;;;;;;14.40;12.40;;;29.70;99.90;;;;;;5128182;28;20470;-67
2021/07/16 10:22:39;;;;;;;14.33;11.97;;;29.70;99.90;;;;;;5114704;28;20582;-64
2021/07/16 10:25:06;;;;;;;14.13;11.43;;;29.70;99.90;;;;;;5126659;28;20471;-67
2021/07/16 10:27:33;;;;;;;11.73;10.63;;;29.70;99.90;;;;;;5129947;28;20416;-67
2021/07/16 10:30:10;;;;;;;12.80;11.60;;;29.70;99.90;;;;;;5129292;28;20511;-67
2021/07/16 10:32:54;;;;;;;15.33;11.20;;;29.80;99.90;;;;;;5127871;28;20414;-63
2021/07/16 10:35:24;;;;;;;23.50;15.20;;;29.80;99.90;;;;;;5106457;28;20458;-62
2021/07/16 10:37:55;;;;;;;13.50;12.13;;;30.00;99.90;;;;;;5122988;28;20422;-64
2021/07/16 10:40:42;;;;;;;13.27;12.07;;;30.10;99.90;;;;;;5109277;28;20454;-67
2021/07/16 10:43:23;;;;;;;13.77;12.33;;;30.20;99.90;;;;;;5123156;28;20425;-67
2021/07/16 10:45:49;;;;;;;14.50;11.47;;;30.20;99.90;;;;;;5104650;28;20445;-64
2021/07/16 10:48:20;;;;;;;12.20;11.20;;;30.30;99.90;;;;;;5105891;28;21083;-64
2021/07/16 10:50:48;;;;;;;13.30;11.93;;;30.30;99.90;;;;;;5129304;27;20943;-67
2021/07/16 10:53:27;;;;;;;13.17;11.87;;;30.40;99.90;;;;;;5129172;28;20574;-68
2021/07/16 10:55:56;;;;;;;14.23;11.90;;;30.40;99.90;;;;;;5126045;28;22053;-66
2021/07/16 10:58:23;;;;;;;14.17;12.03;;;30.40;99.90;;;;;;5107337;27;20440;-68
2021/07/16 11:01:00;;;;;;;28.70;13.80;;;30.50;99.90;;;;;;5125434;27;20989;-67
2021/07/16 11:03:41;;;;;;;12.57;11.03;;;30.40;99.90;;;;;;5110854;27;20520;-63
2021/07/16 11:06:14;;;;;;;25.13;13.27;;;30.50;99.90;;;;;;5126201;27;20472;-68
2021/07/16 11:08:40;;;;;;;18.27;12.20;;;30.50;99.90;;;;;;5130819;27;20440;-68
2021/07/16 11:11:16;;;;;;;25.47;12.67;;;30.60;99.90;;;;;;5133237;27;20465;-63
2021/07/16 11:13:49;;;;;;;13.47;10.57;;;30.60;99.90;;;;;;5120253;27;20988;-64
2021/07/16 11:16:15;;;;;;;13.10;11.40;;;30.60;99.90;;;;;;5127172;27;20452;-67
2021/07/16 11:18:58;;;;;;;13.77;12.30;;;30.60;99.90;;;;;;5131362;27;20417;-66
2021/07/16 11:24:20;;;;;;;13.87;11.40;;;30.70;99.90;;;;;;5119336;27;20436;-64
2021/07/16 11:27:15;;;;;;;12.47;11.17;;;30.70;99.90;;;;;;5122648;27;20474;-67
2021/07/16 11:29:46;;;;;;;25.10;14.07;;;30.80;99.90;;;;;;5111653;27;20790;-68
2021/07/16 11:32:12;;;;;;;20.30;11.33;;;30.80;99.90;;;;;;5107641;27;20426;-67
2021/07/16 11:34:47;;;;;;;12.17;10.97;;;30.80;99.90;;;;;;5125668;27;20923;-67
2021/07/16 11:37:26;;;;;;;17.50;11.03;;;30.80;99.90;;;;;;5121451;27;20216;-67
2021/07/16 11:39:55;;;;;;;15.67;10.13;;;30.80;99.90;;;;;;5107489;27;20545;-64
2021/07/16 11:42:20;;;;;;;15.00;11.23;;;30.80;99.90;;;;;;5128914;27;20530;-67
2021/07/16 11:44:48;;;;;;;12.73;11.33;;;30.80;99.90;;;;;;5128794;27;20489;-63
2021/07/16 11:47:28;;;;;;;16.10;12.90;;;30.90;99.90;;;;;;5107107;27;20337;-67
2021/07/16 11:49:58;;;;;;;13.13;11.83;;;30.90;99.90;;;;;;5122704;27;20799;-62
2021/07/16 11:52:26;;;;;;;15.20;13.70;;;30.90;99.90;;;;;;5128424;27;20427;-63
2021/07/16 11:54:54;;;;;;;13.60;12.27;;;30.90;99.90;;;;;;5130438;27;20495;-63
2021/07/16 11:57:21;;;;;;;16.80;14.67;;;30.90;99.90;;;;;;5110234;27;20434;-67
2021/07/16 11:59:52;;;;;;;15.50;13.90;;;30.90;99.90;;;;;;5111255;27;20551;-62
2021/07/16 12:02:22;;;;;;;15.93;14.27;;;30.90;99.90;;;;;;5125728;27;21018;-63
2021/07/16 12:04:50;;;;;;;14.00;12.70;;;30.90;99.90;;;;;;5130456;27;20485;-69
2021/07/16 12:07:17;;;;;;;14.93;12.80;;;30.80;99.90;;;;;;5130098;27;20459;-68
2021/07/16 12:09:45;;;;;;;13.30;12.10;;;30.90;99.90;;;;;;5130415;27;20435;-68
2021/07/16 12:12:23;;;;;;;15.07;12.13;;;30.80;99.90;;;;;;5130702;27;20776;-69
2021/07/16 12:14:54;;;;;;;14.43;12.33;;;30.80;99.90;;;;;;5115685;27;20516;-67
2021/07/16 12:17:28;;;;;;;14.53;12.33;;;30.70;99.90;;;;;;5117989;27;20422;-68
2021/07/16 12:19:55;;;;;;;13.83;12.53;;;30.80;99.90;;;;;;5131728;27;20441;-63
2021/07/16 12:22:31;;;;;;;18.80;13.23;;;30.80;99.90;;;;;;5113712;27;20478;-71
2021/07/16 12:24:59;;;;;;;14.80;13.00;;;30.80;99.90;;;;;;5128707;27;20422;-66
2021/07/16 12:27:25;;;;;;;14.57;12.53;;;30.80;99.90;;;;;;5127886;27;20426;-63
2021/07/16 12:29:59;;;;;;;14.07;12.70;;;30.80;99.90;;;;;;5133879;27;20454;-67
2021/07/16 12:32:51;;;;;;;14.03;12.63;;;30.80;99.90;;;;;;5120047;27;20188;-63
2021/07/16 12:35:26;;;;;;;15.50;12.77;;;30.90;99.90;;;;;;5127071;27;20538;-62
2021/07/16 12:37:58;;;;;;;13.83;12.43;;;30.90;99.90;;;;;;5131944;27;20415;-68
2021/07/16 12:40:24;;;;;;;13.63;12.03;;;30.90;99.90;;;;;;5131013;27;20446;-63
2021/07/16 12:43:08;;;;;;;14.23;11.67;;;30.90;99.90;;;;;;5115495;27;20471;-64